Time;durP1;ratioP1;P1;durP2;ratioP2;P2;SDS_P1;SDS_P2;PMS_P1;PMS_P2;Temp;Humidity;BMP_temperature;BMP_pressure;BME280_temperature;BME280_humidity;BME280_pressure;Samples;Min_cycle;Max_cycle;Signal;HPM_P1;HPM_P2
2022/04/04 00:01:12;;;;;;;11.13;7.33;;;-1.60;99.90;;;;;;5010775;28;20030;-79
2022/04/04 00:03:37;;;;;;;10.20;7.13;;;-1.60;99.90;;;;;;5012826;28;20026;-79
2022/04/04 00:06:03;;;;;;;9.93;7.33;;;-1.60;99.90;;;;;;5011360;28;20028;-79
2022/04/04 00:08:30;;;;;;;9.93;7.63;;;-1.70;99.90;;;;;;5012927;28;20133;-79
2022/04/04 00:10:56;;;;;;;9.00;7.00;;;-1.70;99.90;;;;;;5012511;28;20092;-79
2022/04/04 00:13:21;;;;;;;11.37;7.40;;;-1.70;99.90;;;;;;5011556;28;20030;-76
2022/04/04 00:15:47;;;;;;;9.53;6.60;;;-1.70;99.90;;;;;;5021872;28;20105;-76
2022/04/04 00:18:13;;;;;;;10.23;7.00;;;-1.80;99.90;;;;;;5033438;28;20100;-76
2022/04/04 00:20:40;;;;;;;10.43;7.03;;;-1.80;99.90;;;;;;5040032;28;20026;-76
2022/04/04 00:23:12;;;;;;;11.17;7.07;;;-1.80;99.90;;;;;;5009836;28;20033;-76
2022/04/04 00:25:43;;;;;;;10.83;7.33;;;-1.90;99.90;;;;;;5013767;28;20449;-76
2022/04/04 00:28:09;;;;;;;11.33;6.67;;;-1.90;99.90;;;;;;5013363;28;20022;-76
2022/04/04 00:30:35;;;;;;;10.40;7.37;;;-1.90;99.90;;;;;;5013147;28;20030;-76
2022/04/04 00:33:00;;;;;;;11.30;7.87;;;-1.90;99.90;;;;;;5013274;28;20050;-76
2022/04/04 00:35:26;;;;;;;10.97;6.77;;;-1.90;99.90;;;;;;5012138;28;20037;-76
2022/04/04 00:37:53;;;;;;;11.13;7.47;;;-2.00;99.90;;;;;;5013611;28;20026;-76
2022/04/04 00:40:18;;;;;;;11.40;7.57;;;-2.00;99.90;;;;;;5013061;28;20029;-76
2022/04/04 00:42:44;;;;;;;12.97;7.37;;;-2.00;99.90;;;;;;5012409;28;20026;-76
2022/04/04 00:45:10;;;;;;;9.57;7.37;;;-2.10;99.90;;;;;;5011934;28;20498;-76
2022/04/04 00:47:35;;;;;;;13.03;7.57;;;-2.10;99.90;;;;;;5013247;28;20030;-76
2022/04/04 00:50:01;;;;;;;10.63;7.20;;;-2.10;99.90;;;;;;5011825;28;20030;-76
2022/04/04 00:52:27;;;;;;;10.93;7.80;;;-2.10;99.90;;;;;;5012136;28;20057;-76
2022/04/04 00:54:52;;;;;;;10.30;7.00;;;-2.10;99.90;;;;;;5013163;28;20052;-76
2022/04/04 00:57:18;;;;;;;11.13;7.00;;;-2.20;99.90;;;;;;5012845;28;20408;-76
2022/04/04 00:59:43;;;;;;;10.13;6.50;;;-2.20;99.90;;;;;;5028587;28;20065;-76
2022/04/04 01:02:09;;;;;;;12.13;7.57;;;-2.20;99.90;;;;;;5012816;28;20108;-76
2022/04/04 01:04:35;;;;;;;9.93;6.63;;;-2.20;99.90;;;;;;5013023;28;20029;-76
2022/04/04 01:07:01;;;;;;;11.57;6.93;;;-2.30;99.90;;;;;;5012961;28;20033;-76
2022/04/04 01:09:27;;;;;;;12.73;7.50;;;-2.30;99.90;;;;;;5011608;28;20363;-76
2022/04/04 01:12:07;;;;;;;10.73;6.63;;;-2.30;99.90;;;;;;5014106;28;20141;-76
2022/04/04 01:14:34;;;;;;;11.43;6.80;;;-2.40;99.90;;;;;;5011599;28;20045;-75
2022/04/04 01:17:00;;;;;;;12.07;7.60;;;-2.40;99.90;;;;;;5012925;28;20022;-75
2022/04/04 01:19:26;;;;;;;11.20;6.50;;;-2.40;99.90;;;;;;5012809;28;20121;-75
2022/04/04 01:21:51;;;;;;;9.50;6.43;;;-2.40;99.90;;;;;;5025557;28;20037;-75
2022/04/04 01:24:21;;;;;;;11.77;7.10;;;-2.50;99.90;;;;;;4998462;28;20081;-75
2022/04/04 01:26:51;;;;;;;11.30;7.17;;;-2.50;99.90;;;;;;4993202;28;20033;-76
2022/04/04 01:29:17;;;;;;;11.00;7.70;;;-2.50;99.90;;;;;;4993052;28;20510;-76
2022/04/04 01:31:43;;;;;;;8.60;6.87;;;-2.50;99.90;;;;;;5008130;28;20129;-76
2022/04/04 01:34:09;;;;;;;10.60;7.00;;;-2.50;99.90;;;;;;5012535;28;20412;-76
2022/04/04 01:36:35;;;;;;;10.63;7.13;;;-2.60;99.90;;;;;;5012317;28;20076;-76
2022/04/04 01:39:01;;;;;;;10.33;7.40;;;-2.60;99.90;;;;;;5011020;28;20030;-76
2022/04/04 01:41:27;;;;;;;11.00;7.00;;;-2.60;99.90;;;;;;5011964;28;20056;-76
2022/04/04 01:43:52;;;;;;;12.00;8.00;;;-2.60;99.90;;;;;;5010750;28;20034;-76
2022/04/04 01:46:24;;;;;;;9.87;7.43;;;-2.70;99.90;;;;;;5011861;28;20080;-76
2022/04/04 01:48:51;;;;;;;10.23;7.40;;;-2.70;99.90;;;;;;5012446;28;20021;-76
2022/04/04 01:51:17;;;;;;;10.83;7.97;;;-2.70;99.90;;;;;;5027022;28;20124;-76
2022/04/04 01:53:43;;;;;;;14.47;7.80;;;-2.70;99.90;;;;;;5011852;28;20042;-76
2022/04/04 01:56:08;;;;;;;12.97;7.40;;;-2.80;99.90;;;;;;5010624;28;20034;-76
2022/04/04 01:58:34;;;;;;;14.07;7.33;;;-2.80;99.90;;;;;;5011639;28;20037;-74
2022/04/04 02:01:01;;;;;;;11.73;7.80;;;-2.80;99.90;;;;;;5010571;28;20387;-76
2022/04/04 02:03:35;;;;;;;11.83;7.53;;;-2.80;99.90;;;;;;5011753;28;20037;-76
2022/04/04 02:06:02;;;;;;;12.33;7.07;;;-2.80;99.90;;;;;;5011733;28;20033;-76
2022/04/04 02:08:28;;;;;;;10.67;7.53;;;-2.80;99.90;;;;;;5010632;28;20120;-76
2022/04/04 02:10:54;;;;;;;10.63;7.47;;;-2.90;99.90;;;;;;5010453;28;20037;-76
2022/04/04 02:13:20;;;;;;;12.13;7.33;;;-2.80;99.90;;;;;;5011446;28;20037;-76
2022/04/04 02:15:46;;;;;;;12.10;8.13;;;-2.80;99.90;;;;;;5009983;28;20056;-74
2022/04/04 02:18:11;;;;;;;12.10;8.20;;;-2.90;99.90;;;;;;5011623;28;20359;-75
2022/04/04 02:20:37;;;;;;;11.37;7.23;;;-2.90;99.90;;;;;;5011702;28;20044;-75
2022/04/04 02:23:03;;;;;;;9.73;7.03;;;-2.90;99.90;;;;;;5005519;28;20396;-75
2022/04/04 02:25:29;;;;;;;12.93;7.47;;;-2.90;99.90;;;;;;5011309;28;20051;-75
2022/04/04 02:27:54;;;;;;;13.20;8.03;;;-2.90;99.90;;;;;;5011602;28;20467;-76
2022/04/04 02:30:20;;;;;;;12.20;7.90;;;-2.90;99.90;;;;;;5011315;28;20022;-76
2022/04/04 02:32:46;;;;;;;13.37;8.60;;;-3.00;99.90;;;;;;5011546;28;20140;-76
2022/04/04 02:35:12;;;;;;;12.03;8.40;;;-3.00;99.90;;;;;;5011583;28;20038;-77
2022/04/04 02:37:37;;;;;;;12.77;7.83;;;-3.00;99.90;;;;;;5012959;28;20030;-76
2022/04/04 02:40:05;;;;;;;14.13;8.07;;;-3.00;99.90;;;;;;5010545;28;20379;-76
2022/04/04 02:42:31;;;;;;;15.23;8.73;;;-3.00;99.90;;;;;;5011388;28;20041;-76
2022/04/04 02:44:57;;;;;;;12.87;8.33;;;-3.00;99.90;;;;;;5011377;28;20030;-76
2022/04/04 02:47:22;;;;;;;13.57;8.63;;;-3.00;99.90;;;;;;5011194;28;20696;-76
2022/04/04 02:49:48;;;;;;;13.17;8.63;;;-3.10;99.90;;;;;;5011519;28;20483;-76
2022/04/04 02:52:14;;;;;;;12.43;8.10;;;-3.10;99.90;;;;;;5009712;28;20022;-76
2022/04/04 02:54:39;;;;;;;14.27;8.80;;;-3.10;99.90;;;;;;5010825;28;20026;-76
2022/04/04 02:57:05;;;;;;;13.60;9.20;;;-3.10;99.90;;;;;;5011184;28;20033;-76
2022/04/04 02:59:31;;;;;;;12.53;8.43;;;-3.10;99.90;;;;;;5010949;28;20379;-76
2022/04/04 03:01:56;;;;;;;13.60;8.30;;;-3.10;99.90;;;;;;5011139;28;20132;-76
2022/04/04 03:04:23;;;;;;;13.20;7.90;;;-3.20;99.90;;;;;;5010790;28;20061;-76
2022/04/04 03:06:49;;;;;;;12.80;8.77;;;-3.10;99.90;;;;;;5009149;28;20014;-76
2022/04/04 03:09:14;;;;;;;14.87;8.17;;;-3.20;99.90;;;;;;5009664;28;20521;-76
2022/04/04 03:11:40;;;;;;;12.97;7.73;;;-3.20;99.90;;;;;;5011259;28;20032;-76
2022/04/04 03:14:06;;;;;;;9.10;6.67;;;-3.30;99.90;;;;;;5011616;28;20518;-76
2022/04/04 03:16:31;;;;;;;12.07;7.60;;;-3.30;99.90;;;;;;5010755;28;20049;-76
2022/04/04 03:18:58;;;;;;;11.00;7.07;;;-3.30;99.90;;;;;;5010233;28;20034;-76
2022/04/04 03:21:27;;;;;;;12.63;8.33;;;-3.40;99.90;;;;;;5008801;28;20117;-76
2022/04/04 03:23:53;;;;;;;13.73;8.50;;;-3.40;99.90;;;;;;4994025;28;20030;-76
2022/04/04 03:26:19;;;;;;;12.07;8.03;;;-3.40;99.90;;;;;;5014280;28;20080;-76
2022/04/04 03:28:46;;;;;;;14.63;8.53;;;-3.50;99.90;;;;;;5009519;28;20026;-77
2022/04/04 03:31:12;;;;;;;11.33;7.90;;;-3.50;99.90;;;;;;5010571;28;20018;-77
2022/04/04 03:33:38;;;;;;;13.27;8.03;;;-3.60;99.90;;;;;;5010944;28;20117;-76
2022/04/04 03:36:04;;;;;;;11.50;8.07;;;-3.50;99.90;;;;;;5013617;28;20101;-76
2022/04/04 03:38:31;;;;;;;12.13;7.40;;;-3.60;99.90;;;;;;5014687;28;20462;-77
2022/04/04 03:40:57;;;;;;;11.70;8.03;;;-3.60;99.90;;;;;;5010784;28;20052;-75
2022/04/04 03:43:23;;;;;;;13.43;7.80;;;-3.60;99.90;;;;;;5014275;28;20034;-75
2022/04/04 03:45:48;;;;;;;12.83;7.90;;;-3.50;99.90;;;;;;5020432;28;20025;-75
2022/04/04 03:48:15;;;;;;;12.23;8.17;;;-3.60;99.90;;;;;;5031678;28;20014;-75
2022/04/04 03:50:43;;;;;;;11.23;8.27;;;-3.60;99.90;;;;;;5013316;28;20069;-75
2022/04/04 03:53:08;;;;;;;12.50;8.07;;;-3.60;99.90;;;;;;5014570;28;20026;-75
2022/04/04 03:55:39;;;;;;;12.00;8.77;;;-3.60;99.90;;;;;;5014134;28;20052;-75
2022/04/04 03:58:10;;;;;;;13.73;8.47;;;-3.60;99.90;;;;;;5013221;28;20110;-75
2022/04/04 04:00:38;;;;;;;13.70;8.20;;;-3.60;99.90;;;;;;5012605;28;20347;-76
2022/04/04 04:03:04;;;;;;;11.73;7.87;;;-3.60;99.90;;;;;;5015474;28;20033;-75
2022/04/04 04:05:29;;;;;;;13.87;7.53;;;-3.60;99.90;;;;;;5013820;28;20030;-75
2022/04/04 04:07:55;;;;;;;13.07;8.47;;;-3.70;99.90;;;;;;5034016;28;20443;-76
2022/04/04 04:10:21;;;;;;;13.87;8.70;;;-3.70;99.90;;;;;;5022688;28;20478;-76
2022/04/04 04:12:47;;;;;;;11.47;7.13;;;-3.70;99.90;;;;;;5011217;28;20018;-76
2022/04/04 04:15:19;;;;;;;12.57;8.57;;;-3.70;99.90;;;;;;5021306;28;20025;-76
2022/04/04 04:17:45;;;;;;;13.27;9.00;;;-3.80;99.90;;;;;;5017354;28;20018;-76
2022/04/04 04:20:19;;;;;;;13.33;7.90;;;-3.80;99.90;;;;;;5014157;28;20030;-75
2022/04/04 04:22:56;;;;;;;12.68;8.32;;;-3.80;99.90;;;;;;5013183;28;20486;-76
2022/04/04 04:25:27;;;;;;;15.63;8.27;;;-3.80;99.90;;;;;;5012633;28;20032;-76
2022/04/04 04:27:52;;;;;;;11.70;8.23;;;-3.80;99.90;;;;;;5022068;28;20018;-76
2022/04/04 04:30:18;;;;;;;16.27;8.97;;;-3.80;99.90;;;;;;5023426;28;20026;-75
2022/04/04 04:32:46;;;;;;;12.80;9.33;;;-3.80;99.90;;;;;;5017968;28;20742;-76
2022/04/04 04:35:12;;;;;;;13.13;7.60;;;-3.80;99.90;;;;;;5027465;28;20510;-75
2022/04/04 04:37:38;;;;;;;11.63;7.87;;;-3.80;99.90;;;;;;5021947;28;20018;-76
2022/04/04 04:40:04;;;;;;;14.37;8.00;;;-3.90;99.90;;;;;;5010373;28;20072;-75
2022/04/04 04:42:32;;;;;;;12.57;7.93;;;-3.90;99.90;;;;;;5025368;28;20470;-78
2022/04/04 04:44:57;;;;;;;14.87;8.17;;;-3.90;99.90;;;;;;5025829;28;20053;-78
2022/04/04 04:47:23;;;;;;;15.27;7.50;;;-3.90;99.90;;;;;;5020696;28;20462;-78
2022/04/04 04:49:48;;;;;;;11.97;7.43;;;-3.90;99.90;;;;;;5028888;28;20021;-78
2022/04/04 04:52:15;;;;;;;15.30;8.67;;;-3.90;99.90;;;;;;5039282;28;20075;-78
2022/04/04 04:54:44;;;;;;;13.77;8.37;;;-3.90;99.90;;;;;;5025846;28;20429;-78
2022/04/04 04:57:09;;;;;;;12.60;8.07;;;-3.90;99.90;;;;;;5031377;28;20017;-79
2022/04/04 04:59:35;;;;;;;13.30;7.90;;;-3.90;99.90;;;;;;5019684;28;20137;-80
2022/04/04 05:02:01;;;;;;;13.50;7.80;;;-3.90;99.90;;;;;;5023448;28;20108;-76
2022/04/04 05:04:26;;;;;;;12.40;8.17;;;-3.90;99.90;;;;;;5018863;28;20075;-75
2022/04/04 05:06:52;;;;;;;11.73;8.23;;;-3.90;99.90;;;;;;5018681;28;20462;-76
2022/04/04 05:09:18;;;;;;;12.33;7.80;;;-3.90;99.90;;;;;;5025281;28;20025;-76
2022/04/04 05:11:44;;;;;;;11.43;7.63;;;-3.90;99.90;;;;;;5034605;28;20571;-76
2022/04/04 05:14:16;;;;;;;13.47;7.67;;;-3.90;99.90;;;;;;5022747;28;20029;-75
2022/04/04 05:16:45;;;;;;;11.60;7.73;;;-3.80;99.90;;;;;;5012895;28;20488;-75
2022/04/04 05:19:12;;;;;;;12.73;7.90;;;-3.80;99.90;;;;;;5017986;28;20022;-75
2022/04/04 05:21:41;;;;;;;12.63;8.20;;;-3.80;99.90;;;;;;5031288;28;20374;-75
2022/04/04 05:24:08;;;;;;;13.57;8.30;;;-3.70;99.90;;;;;;5013600;28;20379;-75
2022/04/04 05:26:33;;;;;;;10.90;8.03;;;-3.70;99.90;;;;;;5013509;28;20030;-76
2022/04/04 05:28:59;;;;;;;12.70;7.73;;;-3.70;99.90;;;;;;5008230;28;20489;-75
2022/04/04 05:31:25;;;;;;;13.87;8.03;;;-3.60;99.90;;;;;;5028744;28;20137;-75
2022/04/04 05:33:51;;;;;;;15.87;7.73;;;-3.60;99.90;;;;;;5027215;28;20025;-75
2022/04/04 05:36:17;;;;;;;11.60;7.47;;;-3.60;99.90;;;;;;5020469;28;20079;-75
2022/04/04 05:38:42;;;;;;;12.87;7.60;;;-3.50;99.90;;;;;;5013586;28;20100;-75
2022/04/04 05:41:09;;;;;;;12.20;8.53;;;-3.50;99.90;;;;;;5013844;28;20053;-75
2022/04/04 05:43:35;;;;;;;16.53;8.27;;;-3.40;99.90;;;;;;5012776;28;20073;-75
2022/04/04 05:46:01;;;;;;;13.67;8.03;;;-3.40;99.90;;;;;;5013687;28;20024;-75
2022/04/04 05:48:30;;;;;;;15.10;8.83;;;-3.30;99.90;;;;;;5025137;28;20108;-76
2022/04/04 05:50:56;;;;;;;16.27;9.63;;;-3.20;99.90;;;;;;5013136;28;20513;-77
2022/04/04 05:53:22;;;;;;;13.47;8.63;;;-3.20;99.90;;;;;;5012931;28;20034;-76
2022/04/04 05:55:48;;;;;;;13.23;9.30;;;-3.10;99.90;;;;;;5013200;28;20022;-76
2022/04/04 05:58:13;;;;;;;13.27;8.40;;;-3.00;99.90;;;;;;5030780;28;20478;-76
2022/04/04 06:00:39;;;;;;;14.73;8.90;;;-2.90;99.90;;;;;;5044104;28;20029;-75
2022/04/04 06:03:06;;;;;;;18.20;9.77;;;-2.80;99.90;;;;;;5013207;28;20029;-75
2022/04/04 06:05:32;;;;;;;16.83;9.63;;;-2.70;99.90;;;;;;5014281;28;20030;-76
2022/04/04 06:07:58;;;;;;;17.07;10.30;;;-2.70;99.90;;;;;;5013193;28;20018;-76
2022/04/04 06:10:23;;;;;;;16.57;10.00;;;-2.60;99.90;;;;;;5011766;28;20481;-76
2022/04/04 06:12:49;;;;;;;16.57;10.00;;;-2.50;99.90;;;;;;5017333;28;20065;-80
2022/04/04 06:15:15;;;;;;;18.23;10.10;;;-2.40;99.90;;;;;;5023494;28;20025;-80
2022/04/04 06:17:42;;;;;;;12.50;8.97;;;-2.30;99.90;;;;;;5010324;28;20033;-77
2022/04/04 06:20:08;;;;;;;19.90;10.87;;;-2.20;99.90;;;;;;5013021;28;20469;-77
2022/04/04 06:22:39;;;;;;;24.33;10.57;;;-2.10;99.90;;;;;;5020900;28;20029;-75
2022/04/04 06:25:07;;;;;;;16.10;10.27;;;-2.00;99.90;;;;;;5012577;28;20018;-74
2022/04/04 06:27:33;;;;;;;18.80;10.33;;;-1.90;99.90;;;;;;5017458;28;20018;-75
2022/04/04 06:29:59;;;;;;;19.43;10.80;;;-1.80;99.90;;;;;;5016610;28;20026;-75
2022/04/04 06:32:25;;;;;;;15.33;9.53;;;-1.70;99.90;;;;;;5010992;28;20522;-74
2022/04/04 06:34:51;;;;;;;14.60;8.93;;;-1.70;99.90;;;;;;5021056;28;20037;-79
2022/04/04 06:37:17;;;;;;;12.43;7.90;;;-1.60;99.90;;;;;;5020576;28;20434;-79
2022/04/04 06:39:43;;;;;;;12.23;7.90;;;-1.50;99.90;;;;;;5012457;28;20018;-79
2022/04/04 06:42:08;;;;;;;12.87;7.97;;;-1.40;99.90;;;;;;5009609;28;20105;-79
2022/04/04 06:44:34;;;;;;;15.37;9.33;;;-1.40;99.90;;;;;;5009859;28;20105;-79
2022/04/04 06:47:00;;;;;;;13.47;8.10;;;-1.30;99.90;;;;;;5006870;28;20033;-75
2022/04/04 06:49:26;;;;;;;11.23;7.77;;;-1.30;99.90;;;;;;5012926;28;20048;-74
2022/04/04 06:51:52;;;;;;;13.37;8.13;;;-1.20;99.90;;;;;;5026892;28;20025;-75
2022/04/04 06:54:19;;;;;;;11.47;7.90;;;-1.20;99.90;;;;;;5012539;28;20072;-73
2022/04/04 06:56:47;;;;;;;12.20;7.20;;;-1.00;99.90;;;;;;5015538;28;20030;-78
2022/04/04 06:59:13;;;;;;;12.17;7.43;;;-1.00;99.90;;;;;;5015981;28;20022;-76
2022/04/04 07:01:39;;;;;;;14.17;7.23;;;-1.00;99.90;;;;;;5012294;28;20101;-76
2022/04/04 07:04:04;;;;;;;12.13;7.07;;;-0.80;99.90;;;;;;5014185;28;20022;-76
2022/04/04 07:06:30;;;;;;;9.67;6.20;;;-0.80;99.90;;;;;;5011808;28;20033;-74
2022/04/04 07:08:56;;;;;;;10.00;6.97;;;-0.70;99.90;;;;;;5012574;28;20071;-74
2022/04/04 07:11:22;;;;;;;11.40;6.93;;;-0.60;99.90;;;;;;5015656;28;20382;-74
2022/04/04 07:13:49;;;;;;;13.00;6.60;;;-0.60;99.90;;;;;;5019667;28;20079;-78
2022/04/04 07:16:18;;;;;;;14.33;6.00;;;-0.50;99.90;;;;;;5030951;28;20473;-79
2022/04/04 07:18:43;;;;;;;9.57;6.33;;;-0.40;99.90;;;;;;5013092;28;20075;-80
2022/04/04 07:21:09;;;;;;;12.90;6.60;;;-0.30;99.90;;;;;;5010988;28;20026;-80
2022/04/04 07:23:36;;;;;;;11.37;6.33;;;-0.10;99.90;;;;;;5008589;28;20355;-80
2022/04/04 07:26:01;;;;;;;8.13;5.90;;;-0.10;99.90;;;;;;5011129;28;20152;-80
2022/04/04 07:28:27;;;;;;;9.47;6.53;;;0.00;99.90;;;;;;5011376;28;20125;-80
2022/04/04 07:30:54;;;;;;;11.57;7.00;;;0.10;99.90;;;;;;5012968;28;20105;-80
2022/04/04 07:33:20;;;;;;;10.53;7.03;;;0.10;99.90;;;;;;5008298;28;20061;-80
2022/04/04 07:35:46;;;;;;;12.17;7.07;;;0.20;99.90;;;;;;5013375;28;20099;-76
2022/04/04 07:38:13;;;;;;;8.67;6.37;;;0.20;99.90;;;;;;5016400;28;20030;-75
2022/04/04 07:40:39;;;;;;;13.10;6.37;;;0.30;99.90;;;;;;5016512;28;20034;-76
2022/04/04 07:43:04;;;;;;;8.40;5.80;;;0.40;99.90;;;;;;5016503;28;20022;-76
2022/04/04 07:45:31;;;;;;;8.07;5.60;;;0.40;99.90;;;;;;5016196;28;20032;-76
2022/04/04 07:47:57;;;;;;;7.53;4.80;;;0.60;99.90;;;;;;5014858;28;20034;-76
2022/04/04 07:50:23;;;;;;;7.10;4.97;;;0.70;99.90;;;;;;5020947;28;20060;-74
2022/04/04 07:52:49;;;;;;;8.57;5.17;;;0.80;99.90;;;;;;5015940;28;20045;-75
2022/04/04 07:55:15;;;;;;;8.57;4.60;;;0.90;99.90;;;;;;5016219;28;20018;-73
2022/04/04 07:57:41;;;;;;;6.07;4.50;;;0.90;99.90;;;;;;5019158;28;20018;-73
2022/04/04 08:00:09;;;;;;;7.80;4.80;;;1.00;99.90;;;;;;5018683;28;20060;-79
2022/04/04 08:02:35;;;;;;;10.50;5.00;;;1.10;99.90;;;;;;5018591;28;20088;-79
2022/04/04 08:05:01;;;;;;;8.03;4.17;;;1.20;99.90;;;;;;5015549;28;20478;-79
2022/04/04 08:07:27;;;;;;;6.63;4.10;;;1.20;99.90;;;;;;5020594;28;20029;-79
2022/04/04 08:09:52;;;;;;;5.73;4.17;;;1.20;99.90;;;;;;5018139;28;20076;-79
2022/04/04 08:12:18;;;;;;;5.77;4.03;;;1.30;99.90;;;;;;5014602;28;20034;-79
2022/04/04 08:14:47;;;;;;;5.50;3.73;;;1.40;99.90;;;;;;5018696;28;20474;-79
2022/04/04 08:17:15;;;;;;;5.93;3.47;;;1.40;99.90;;;;;;5017992;28;20025;-79
2022/04/04 08:19:40;;;;;;;6.43;3.73;;;1.50;99.90;;;;;;5017491;28;20041;-79
2022/04/04 08:22:06;;;;;;;8.03;2.90;;;1.50;99.90;;;;;;5017221;28;20034;-79
2022/04/04 08:24:32;;;;;;;7.60;3.53;;;1.60;99.90;;;;;;5020614;28;20025;-78
2022/04/04 08:26:58;;;;;;;5.33;3.63;;;1.60;99.90;;;;;;5032313;28;20370;-75
2022/04/04 08:29:23;;;;;;;8.73;3.60;;;1.70;99.90;;;;;;5016853;28;20425;-75
2022/04/04 08:31:49;;;;;;;5.23;3.47;;;1.60;99.90;;;;;;5022216;28;20140;-75
2022/04/04 08:34:15;;;;;;;6.87;3.37;;;1.70;99.90;;;;;;5013338;28;20085;-79
2022/04/04 08:36:41;;;;;;;6.53;3.80;;;1.80;99.90;;;;;;5011999;28;20072;-79
2022/04/04 08:39:07;;;;;;;5.47;3.30;;;2.00;99.90;;;;;;5010970;28;20022;-79
2022/04/04 08:41:34;;;;;;;6.93;3.50;;;1.90;99.90;;;;;;5012098;28;20533;-75
2022/04/04 08:44:01;;;;;;;4.23;3.23;;;2.00;99.90;;;;;;5027953;28;20071;-75
2022/04/04 08:46:28;;;;;;;7.73;3.70;;;2.00;99.90;;;;;;5034986;28;20021;-75
2022/04/04 08:48:57;;;;;;;5.23;3.57;;;2.10;99.90;;;;;;5035038;28;20070;-74
2022/04/04 08:51:23;;;;;;;5.30;3.70;;;2.20;99.90;;;;;;5019173;28;20080;-75
2022/04/04 08:53:49;;;;;;;6.13;3.63;;;2.10;99.90;;;;;;5031238;28;20385;-75
2022/04/04 08:56:15;;;;;;;7.00;3.80;;;2.10;99.90;;;;;;5033033;28;20037;-75
2022/04/04 08:58:41;;;;;;;5.07;3.43;;;2.20;99.90;;;;;;5014588;28;20030;-76
2022/04/04 09:01:06;;;;;;;5.77;3.43;;;2.30;99.90;;;;;;5014848;28;20030;-76
2022/04/04 09:03:33;;;;;;;5.80;4.00;;;2.40;99.90;;;;;;5014648;28;20088;-74
2022/04/04 09:06:01;;;;;;;5.33;3.40;;;2.50;99.90;;;;;;5009520;28;20049;-79
2022/04/04 09:08:31;;;;;;;5.90;3.77;;;2.60;99.90;;;;;;5012450;28;20028;-74
2022/04/04 09:11:00;;;;;;;5.57;3.63;;;2.50;99.90;;;;;;5013128;28;20030;-75
2022/04/04 09:13:27;;;;;;;4.80;3.60;;;2.60;99.90;;;;;;5014182;28;20397;-75
2022/04/04 09:15:57;;;;;;;8.63;4.13;;;2.80;99.90;;;;;;5012382;28;20058;-76
2022/04/04 09:18:41;;;;;;;7.87;4.00;;;2.80;99.90;;;;;;5010776;28;20030;-80
2022/04/04 09:21:08;;;;;;;7.43;4.23;;;2.90;99.90;;;;;;5012491;28;20490;-76
2022/04/04 09:23:55;;;;;;;5.03;3.90;;;3.00;99.90;;;;;;5012950;28;20060;-75
2022/04/04 09:26:38;;;;;;;9.23;4.37;;;3.00;99.90;;;;;;5012497;28;20025;-75
2022/04/04 09:29:22;;;;;;;12.97;4.57;;;3.10;99.90;;;;;;5027308;28;20876;-79
2022/04/04 09:32:05;;;;;;;6.00;3.90;;;3.20;99.90;;;;;;5016203;28;20057;-79
2022/04/04 09:34:51;;;;;;;5.57;4.00;;;3.30;99.90;;;;;;5019713;28;20037;-79
2022/04/04 09:37:17;;;;;;;;;;;3.20;99.90;;;;;;5007689;28;20030;-79
2022/04/04 09:39:42;;;;;;;7.23;4.13;;;3.30;99.90;;;;;;4996129;28;19958;-79
2022/04/04 09:42:16;;;;;;;8.80;4.07;;;3.40;99.90;;;;;;5008526;28;20444;-79
2022/04/04 09:44:55;;;;;;;9.63;4.97;;;3.70;99.90;;;;;;5011339;28;20095;-79
2022/04/04 09:47:21;;;;;;;6.77;4.60;;;3.70;99.90;;;;;;4996122;28;20537;-79
2022/04/04 09:49:46;;;;;;;10.07;5.60;;;3.80;99.90;;;;;;5007601;28;20117;-80
2022/04/04 09:52:14;;;;;;;8.40;4.80;;;3.80;99.90;;;;;;5016866;28;20463;-79
2022/04/04 09:54:43;;;;;;;5.80;4.80;;;3.90;99.90;;;;;;5013063;28;20088;-79
2022/04/04 09:57:17;;;;;;;7.40;4.83;;;3.90;99.90;;;;;;5008086;28;20128;-80
2022/04/04 09:59:43;;;;;;;8.85;5.25;;;3.90;99.90;;;;;;5026265;28;20790;-79
2022/04/04 10:02:12;;;;;;;7.53;5.17;;;4.00;99.90;;;;;;5026458;28;20112;-79
2022/04/04 10:04:41;;;;;;;10.23;5.27;;;4.10;99.90;;;;;;5027508;28;20589;-79
2022/04/04 10:07:09;;;;;;;6.93;5.43;;;4.20;99.90;;;;;;5027870;28;20032;-79
2022/04/04 10:09:35;;;;;;;6.67;4.90;;;4.50;99.90;;;;;;5025917;28;20049;-79
2022/04/04 10:12:03;;;;;;;6.67;5.20;;;4.60;99.90;;;;;;5020562;28;20095;-79
2022/04/04 10:14:31;;;;;;;12.10;6.10;;;4.70;99.90;;;;;;5007709;28;20053;-79
2022/04/04 10:16:58;;;;;;;8.30;6.00;;;4.70;99.90;;;;;;5007426;28;20026;-79
2022/04/04 10:19:27;;;;;;;9.60;5.80;;;4.80;99.90;;;;;;5021599;28;20034;-79
2022/04/04 10:21:52;;;;;;;7.57;5.97;;;5.00;99.90;;;;;;5018549;28;20026;-78
2022/04/04 10:24:19;;;;;;;7.73;6.27;;;5.10;99.90;;;;;;5005196;28;20093;-79
2022/04/04 10:26:48;;;;;;;9.70;6.30;;;5.10;99.90;;;;;;5005143;28;20052;-79
2022/04/04 10:29:17;;;;;;;7.80;5.67;;;5.00;99.90;;;;;;5009038;28;20080;-79
2022/04/04 10:31:46;;;;;;;8.43;6.10;;;4.90;99.90;;;;;;5036190;28;20808;-79
2022/04/04 10:34:23;;;;;;;8.63;6.00;;;5.20;99.90;;;;;;5017498;28;20025;-79
2022/04/04 10:37:06;;;;;;;12.80;5.97;;;5.30;99.90;;;;;;5004760;28;20044;-79
2022/04/04 10:39:36;;;;;;;7.33;5.60;;;5.30;99.90;;;;;;5005084;28;20034;-79
2022/04/04 10:42:03;;;;;;;10.03;6.00;;;5.30;99.90;;;;;;5008659;28;20065;-79
2022/04/04 10:44:49;;;;;;;10.30;6.30;;;5.20;99.90;;;;;;5004558;28;20029;-79
2022/04/04 10:47:22;;;;;;;8.55;6.38;;;5.10;99.90;;;;;;5008944;28;20022;-79
2022/04/04 10:49:49;;;;;;;10.00;6.63;;;4.90;99.90;;;;;;4995506;28;20037;-78
2022/04/04 10:52:19;;;;;;;9.90;6.37;;;5.10;99.90;;;;;;5027411;28;20134;-79
2022/04/04 10:54:46;;;;;;;9.80;6.57;;;5.30;99.90;;;;;;5031524;28;20032;-79
2022/04/04 10:57:16;;;;;;;8.43;6.77;;;5.20;99.90;;;;;;5010374;28;20029;-79
2022/04/04 10:59:46;;;;;;;11.50;6.87;;;5.00;99.90;;;;;;5011798;28;20541;-79
2022/04/04 11:02:14;;;;;;;7.90;6.63;;;5.00;99.90;;;;;;5010572;28;20483;-79
2022/04/04 11:07:37;;;;;;;11.93;7.03;;;5.20;99.90;;;;;;5011315;28;20032;-79
2022/04/04 11:07:38;;;;;;;;;;;5.30;99.90;;;;;;5011978;28;20022;-79
2022/04/04 11:10:06;;;;;;;8.50;6.90;;;5.40;99.90;;;;;;5024373;28;19923;-79
2022/04/04 11:13:07;;;;;;;9.60;6.33;;;5.40;99.90;;;;;;5023347;28;20021;-79
2022/04/04 11:15:51;;;;;;;7.27;6.30;;;5.50;99.90;;;;;;5013901;28;20029;-79
2022/04/04 11:18:17;;;;;;;8.70;6.73;;;5.70;99.90;;;;;;5011198;28;20021;-79
2022/04/04 11:20:50;;;;;;;11.47;6.63;;;6.00;99.90;;;;;;5011107;28;20084;-79
2022/04/04 11:23:17;;;;;;;9.47;6.33;;;6.10;99.90;;;;;;5011110;28;20548;-79
2022/04/04 11:25:54;;;;;;;8.87;6.57;;;6.00;99.90;;;;;;5011803;28;20106;-79
2022/04/04 11:28:25;;;;;;;8.50;6.63;;;6.30;99.90;;;;;;5009168;28;20076;-79
2022/04/04 11:30:53;;;;;;;7.83;6.33;;;6.30;99.90;;;;;;5028339;28;20114;-75
2022/04/04 11:33:22;;;;;;;9.73;6.90;;;6.30;99.90;;;;;;4996894;28;20708;-76
2022/04/04 11:35:49;;;;;;;8.47;6.70;;;6.50;99.90;;;;;;4995591;28;20375;-75
2022/04/04 11:38:17;;;;;;;8.73;6.70;;;6.50;99.90;;;;;;4996864;28;20356;-75
2022/04/04 11:40:45;;;;;;;10.30;6.70;;;6.60;99.90;;;;;;5012026;28;20407;-75
2022/04/04 11:43:16;;;;;;;8.83;6.33;;;6.60;99.90;;;;;;4996792;28;20022;-75
2022/04/04 11:45:43;;;;;;;8.63;6.47;;;6.70;99.90;;;;;;4996998;28;20050;-75
2022/04/04 11:48:23;;;;;;;9.83;6.40;;;6.70;99.90;;;;;;5006155;28;20065;-75
2022/04/04 11:50:50;;;;;;;10.67;6.57;;;6.90;99.90;;;;;;4996720;28;20030;-75
2022/04/04 11:53:22;;;;;;;9.27;6.87;;;6.80;99.90;;;;;;5006934;28;20088;-75
2022/04/04 11:55:48;;;;;;;8.57;7.17;;;6.70;99.90;;;;;;5001342;28;20409;-75
2022/04/04 11:58:16;;;;;;;8.83;7.33;;;6.60;99.90;;;;;;5002589;28;20026;-74
2022/04/04 12:00:53;;;;;;;11.03;7.17;;;6.70;99.90;;;;;;5016042;28;20458;-75
2022/04/04 12:03:19;;;;;;;10.87;7.33;;;7.00;99.90;;;;;;5016139;28;20409;-74
2022/04/04 12:05:47;;;;;;;11.53;7.67;;;7.10;99.90;;;;;;5031069;28;20105;-75
2022/04/04 12:08:15;;;;;;;8.33;6.77;;;7.30;99.90;;;;;;5015804;28;20026;-74
2022/04/04 12:10:42;;;;;;;11.97;7.20;;;7.30;99.90;;;;;;5028237;28;20159;-75
2022/04/04 12:13:21;;;;;;;10.07;7.67;;;7.40;99.90;;;;;;5051255;28;20033;-74
2022/04/04 12:15:49;;;;;;;11.03;8.07;;;7.40;99.90;;;;;;5021111;28;20069;-74
2022/04/04 12:18:29;;;;;;;10.00;7.63;;;7.40;99.90;;;;;;5015654;28;20107;-75
2022/04/04 12:20:58;;;;;;;8.63;7.00;;;7.30;99.90;;;;;;5030571;28;20034;-74
2022/04/04 12:26:14;;;;;;;10.20;7.63;;;7.00;99.90;;;;;;5016100;28;20041;-74
2022/04/04 12:28:51;;;;;;;10.07;8.20;;;6.90;99.90;;;;;;5015678;28;20026;-74
2022/04/04 12:31:28;;;;;;;10.17;8.23;;;6.90;99.90;;;;;;5012353;28;20058;-74
2022/04/04 12:34:02;;;;;;;10.17;7.77;;;7.00;99.90;;;;;;5015554;28;20382;-74
2022/04/04 12:36:39;;;;;;;10.33;8.20;;;7.10;99.90;;;;;;5015279;28;20036;-74
2022/04/04 12:39:06;;;;;;;12.10;8.70;;;7.10;99.90;;;;;;5015418;28;20018;-74
2022/04/04 12:41:53;;;;;;;11.33;8.80;;;7.20;99.90;;;;;;5015312;28;20034;-74
2022/04/04 12:44:21;;;;;;;10.20;8.17;;;7.10;99.90;;;;;;5015080;28;20018;-74
2022/04/04 12:46:46;;;;;;;11.57;8.30;;;7.30;99.90;;;;;;5015050;28;20026;-74
2022/04/04 12:49:19;;;;;;;12.67;8.77;;;7.20;99.90;;;;;;5015134;28;20028;-74
2022/04/04 12:52:06;;;;;;;9.67;8.33;;;7.10;99.90;;;;;;5013708;28;20032;-74